Time;durP1;ratioP1;P1;durP2;ratioP2;P2;SDS_P1;SDS_P2;PMS_P1;PMS_P2;Temp;Humidity;BMP_temperature;BMP_pressure;BME280_temperature;BME280_humidity;BME280_pressure;Samples;Min_cycle;Max_cycle;Signal;HPM_P1;HPM_P2
2023/09/08 00:00:55;;;;;;;9.65;7.43;;;19.70;1.00;;;;;;20551168;28;20399;-43
2023/09/08 00:10:56;;;;;;;9.98;8.10;;;19.50;1.00;;;;;;20544410;28;20050;-43
2023/09/08 00:20:56;;;;;;;10.85;8.48;;;19.30;1.00;;;;;;20540316;28;20158;-43
2023/09/08 00:30:59;;;;;;;9.57;8.55;;;19.10;1.00;;;;;;20554951;28;20531;-43
2023/09/08 00:41:00;;;;;;;12.27;9.18;;;19.00;1.00;;;;;;20544151;28;20054;-43
2023/09/08 00:51:02;;;;;;;12.70;8.75;;;19.00;1.00;;;;;;20545905;28;20133;-43
2023/09/08 01:01:02;;;;;;;9.32;8.25;;;18.90;1.00;;;;;;20562604;28;20956;-43
2023/09/08 01:11:03;;;;;;;11.70;8.82;;;18.80;1.00;;;;;;20535450;28;20170;-43
2023/09/08 01:21:19;;;;;;;15.87;9.97;;;18.80;1.00;;;;;;20543811;28;20038;-43
2023/09/08 01:31:20;;;;;;;13.68;9.90;;;19.10;1.00;;;;;;20536739;28;20470;-43
2023/09/08 01:41:20;;;;;;;10.48;9.38;;;19.30;1.00;;;;;;20547472;28;20108;-43
2023/09/08 01:51:21;;;;;;;12.85;9.40;;;19.30;1.00;;;;;;20558954;28;20042;-43
2023/09/08 02:01:21;;;;;;;15.25;9.82;;;19.20;1.00;;;;;;20534361;28;20515;-43
2023/09/08 02:11:22;;;;;;;11.40;9.50;;;19.20;1.00;;;;;;20538248;28;20359;-43
2023/09/08 02:21:23;;;;;;;12.30;9.40;;;19.10;1.00;;;;;;20538797;28;20039;-43
2023/09/08 02:31:23;;;;;;;11.82;9.52;;;18.80;1.00;;;;;;20544560;28;20483;-43
2023/09/08 02:41:24;;;;;;;12.00;9.93;;;18.70;1.00;;;;;;20541885;28;20163;-43
2023/09/08 02:51:24;;;;;;;11.25;9.38;;;18.50;1.00;;;;;;20572940;28;20100;-43
2023/09/08 03:01:25;;;;;;;11.75;9.82;;;18.40;1.00;;;;;;20557134;28;20051;-43
2023/09/08 03:11:25;;;;;;;13.52;10.13;;;18.30;1.00;;;;;;20558047;28;20043;-43
2023/09/08 03:21:26;;;;;;;15.07;10.60;;;18.20;1.00;;;;;;20567717;28;20045;-43
2023/09/08 03:31:27;;;;;;;15.13;11.30;;;18.10;1.00;;;;;;20566919;28;20054;-43
2023/09/08 03:41:28;;;;;;;13.95;11.23;;;18.00;1.00;;;;;;20579446;28;20043;-43
2023/09/08 03:51:28;;;;;;;12.43;10.07;;;18.00;1.00;;;;;;20581333;28;20116;-43
2023/09/08 04:01:29;;;;;;;11.65;10.23;;;17.90;1.00;;;;;;20579221;28;20474;-43
2023/09/08 04:11:29;;;;;;;13.52;11.25;;;17.80;1.00;;;;;;20580243;28;20073;-43
2023/09/08 04:21:30;;;;;;;13.77;11.35;;;17.60;1.00;;;;;;20571896;28;20503;-43
2023/09/08 04:31:30;;;;;;;18.33;14.20;;;17.60;5.00;;;;;;20564474;28;20050;-43
2023/09/08 04:41:31;;;;;;;19.90;15.15;;;17.70;56.50;;;;;;20564162;28;20363;-43
2023/09/08 04:51:31;;;;;;;19.85;15.48;;;17.60;99.40;;;;;;20562999;28;20042;-42
2023/09/08 05:01:32;;;;;;;21.20;16.55;;;17.40;99.90;;;;;;20563650;28;20042;-43
2023/09/08 05:11:33;;;;;;;20.10;16.38;;;17.40;99.90;;;;;;20562854;28;20043;-43
2023/09/08 05:21:34;;;;;;;20.27;16.67;;;17.30;99.90;;;;;;20568810;28;20035;-43
2023/09/08 05:31:34;;;;;;;18.73;16.23;;;17.20;99.90;;;;;;20565097;28;20507;-43
2023/09/08 05:41:35;;;;;;;20.00;16.37;;;17.20;99.90;;;;;;20549099;28;20047;-43
2023/09/08 05:51:36;;;;;;;20.15;16.35;;;17.30;99.90;;;;;;20572556;28;20572;-43
2023/09/08 06:01:37;;;;;;;25.00;19.20;;;17.30;99.90;;;;;;20569796;28;20491;-43
2023/09/08 06:11:37;;;;;;;26.50;19.87;;;17.60;99.90;;;;;;20571226;28;20042;-43
2023/09/08 06:21:38;;;;;;;23.40;17.92;;;17.90;99.90;;;;;;20582119;28;20498;-43
2023/09/08 06:31:38;;;;;;;23.73;18.58;;;18.30;99.90;;;;;;20594101;28;20409;-43
2023/09/08 06:41:39;;;;;;;20.17;16.40;;;18.60;37.10;;;;;;20590178;28;20449;-43
2023/09/08 06:51:39;;;;;;;18.73;15.23;;;18.90;1.00;;;;;;20590293;28;20042;-43
2023/09/08 07:01:40;;;;;;;24.10;16.25;;;19.40;1.00;;;;;;20593894;28;20286;-43
2023/09/08 07:11:41;;;;;;;15.40;12.13;;;19.60;1.00;;;;;;20592487;28;20493;-43
2023/09/08 07:21:41;;;;;;;21.87;16.27;;;20.00;1.00;;;;;;20591361;28;20421;-44
2023/09/08 07:31:42;;;;;;;17.48;14.38;;;20.50;1.00;;;;;;20584513;28;20473;-44
2023/09/08 07:41:42;;;;;;;25.42;16.10;;;20.80;1.00;;;;;;20566072;28;20058;-41
2023/09/08 07:51:43;;;;;;;18.27;14.48;;;21.20;1.00;;;;;;20577415;28;20066;-44
2023/09/08 08:01:43;;;;;;;15.63;13.95;;;21.60;1.00;;;;;;20571431;28;20042;-44
2023/09/08 08:11:44;;;;;;;14.90;12.33;;;21.90;1.00;;;;;;20573256;28;20042;-44
2023/09/08 08:21:44;;;;;;;18.95;15.05;;;22.30;1.00;;;;;;20569801;28;20503;-44
2023/09/08 08:31:45;;;;;;;17.67;14.52;;;22.80;1.00;;;;;;20566447;28;20762;-44
2023/09/08 08:41:45;;;;;;;14.82;12.13;;;23.20;1.00;;;;;;20564310;28;20075;-44
2023/09/08 08:51:48;;;;;;;16.45;14.25;;;23.50;1.00;;;;;;20578507;28;20048;-44
2023/09/08 09:01:49;;;;;;;15.45;12.35;;;24.20;1.00;;;;;;20584040;28;20046;-44
2023/09/08 09:11:50;;;;;;;15.27;12.65;;;24.60;1.00;;;;;;20582299;28;20112;-44
2023/09/08 09:21:51;;;;;;;16.80;13.00;;;25.00;1.00;;;;;;20584838;28;20035;-43
2023/09/08 09:32:04;;;;;;;12.98;11.05;;;26.10;1.00;;;;;;20580570;28;20039;-44
2023/09/08 09:42:04;;;;;;;14.05;11.90;;;26.10;1.00;;;;;;20580090;28;20042;-44
2023/09/08 09:52:05;;;;;;;12.52;11.23;;;26.00;1.00;;;;;;20582879;28;20042;-44
2023/09/08 10:02:12;;;;;;;14.43;12.27;;;26.10;1.00;;;;;;20591742;28;20046;-44
2023/09/08 10:12:15;;;;;;;;;;;26.30;1.00;;;;;;20595969;28;20914;-44
2023/09/08 10:22:22;;;;;;;12.50;9.23;;;26.40;1.00;;;;;;20595838;28;19914;-44
2023/09/08 10:32:23;;;;;;;9.60;7.43;;;26.70;1.00;;;;;;20596104;28;20131;-43
2023/09/08 10:42:27;;;;;;;8.52;7.20;;;27.00;1.00;;;;;;20586054;28;20043;-44
2023/09/08 10:52:27;;;;;;;8.23;5.82;;;27.40;1.00;;;;;;20597362;28;20042;-44
2023/09/08 11:02:54;;;;;;;9.00;6.25;;;27.70;1.00;;;;;;20591107;28;20039;-44
2023/09/08 11:12:55;;;;;;;7.40;5.80;;;28.40;1.00;;;;;;20572711;28;20495;-44
2023/09/08 11:22:55;;;;;;;6.13;5.20;;;28.70;1.00;;;;;;20580443;28;20537;-44
2023/09/08 11:32:58;;;;;;;6.33;5.00;;;29.30;1.00;;;;;;20571034;28;20104;-44
2023/09/08 11:42:59;;;;;;;8.65;5.00;;;29.70;1.00;;;;;;20571430;28;20041;-44
2023/09/08 11:53:00;;;;;;;6.40;4.30;;;30.00;1.00;;;;;;20577726;28;20482;-44
2023/09/08 12:03:17;;;;;;;5.80;4.72;;;30.40;1.00;;;;;;20585095;28;20046;-44
2023/09/08 12:13:23;;;;;;;7.13;4.95;;;30.70;1.00;;;;;;20589219;28;20041;-44
2023/09/08 12:23:24;;;;;;;5.13;4.63;;;30.90;1.00;;;;;;20589214;28;20050;-44
2023/09/08 12:33:26;;;;;;;6.72;4.72;;;31.20;1.00;;;;;;20588887;28;20027;-44
2023/09/08 12:43:26;;;;;;;5.80;4.90;;;31.20;1.00;;;;;;20586378;28;20045;-44
2023/09/08 12:53:27;;;;;;;5.57;5.07;;;31.40;1.00;;;;;;20588915;28;20046;-44
2023/09/08 13:03:29;;;;;;;5.25;4.75;;;31.50;1.00;;;;;;20585270;28;20505;-44
2023/09/08 13:13:30;;;;;;;5.28;4.38;;;31.50;1.00;;;;;;20584896;28;20038;-44
2023/09/08 13:23:30;;;;;;;7.65;5.35;;;31.60;1.00;;;;;;20585749;28;20085;-43
2023/09/08 13:33:31;;;;;;;5.78;5.18;;;31.70;1.00;;;;;;20584789;28;20060;-44
2023/09/08 13:43:31;;;;;;;6.20;4.85;;;31.80;1.00;;;;;;20583516;28;20046;-44
2023/09/08 13:53:33;;;;;;;6.65;5.30;;;32.10;1.00;;;;;;20585371;28;20042;-44
2023/09/08 14:03:33;;;;;;;6.50;4.88;;;32.10;1.00;;;;;;20583648;28;20042;-44
2023/09/08 14:13:35;;;;;;;6.13;5.53;;;31.90;1.00;;;;;;20582353;28;20094;-44
2023/09/08 14:23:37;;;;;;;5.85;5.25;;;31.60;1.00;;;;;;20584824;28;20594;-44
2023/09/08 14:33:37;;;;;;;12.70;6.13;;;31.50;1.00;;;;;;20581972;28;20506;-44
2023/09/08 14:43:38;;;;;;;6.13;5.28;;;31.40;1.00;;;;;;20581757;28;20035;-44
2023/09/08 14:53:39;;;;;;;6.47;5.25;;;31.30;1.00;;;;;;20596713;28;20034;-44
2023/09/08 15:03:40;;;;;;;8.57;5.68;;;31.00;1.00;;;;;;20592797;28;20043;-44
2023/09/08 15:13:40;;;;;;;5.68;5.05;;;30.70;1.00;;;;;;20593190;28;20058;-44
2023/09/08 15:23:41;;;;;;;8.00;5.88;;;30.50;1.00;;;;;;20593876;28;20294;-44
2023/09/08 15:33:41;;;;;;;6.47;5.10;;;30.30;1.00;;;;;;20592773;28;20030;-44
2023/09/08 15:43:44;;;;;;;5.60;5.05;;;30.00;1.00;;;;;;20590394;28;20053;-44
2023/09/08 15:53:45;;;;;;;7.38;6.20;;;30.00;1.00;;;;;;20593916;28;20038;-44
2023/09/08 16:03:46;;;;;;;6.10;5.50;;;29.90;1.00;;;;;;20590207;28;20495;-44
2023/09/08 16:13:47;;;;;;;6.20;5.60;;;29.60;1.00;;;;;;20589238;28;20267;-44
2023/09/08 16:23:47;;;;;;;7.38;6.03;;;29.40;1.00;;;;;;20590873;28;20065;-45
2023/09/08 16:33:48;;;;;;;7.07;6.00;;;29.20;1.00;;;;;;20588028;28;20034;-44
2023/09/08 16:43:48;;;;;;;7.45;5.70;;;28.70;1.00;;;;;;20585599;28;20074;-44
2023/09/08 16:53:49;;;;;;;7.47;6.25;;;28.20;1.00;;;;;;20590327;28;20035;-44
2023/09/08 17:03:49;;;;;;;7.82;6.00;;;27.80;1.00;;;;;;20586702;28;20307;-44
2023/09/08 17:13:50;;;;;;;6.95;6.18;;;27.50;1.00;;;;;;20583261;28;20045;-44
2023/09/08 17:23:51;;;;;;;6.22;5.57;;;27.10;1.00;;;;;;20586681;28;20086;-44
2023/09/08 17:33:51;;;;;;;7.47;6.38;;;26.90;1.00;;;;;;20584513;28;20033;-42
2023/09/08 17:43:52;;;;;;;9.48;8.52;;;26.50;1.00;;;;;;20584344;28;20258;-42
2023/09/08 17:53:52;;;;;;;13.13;11.73;;;26.10;1.00;;;;;;20586649;28;20530;-42
2023/09/08 18:03:53;;;;;;;8.98;7.72;;;25.70;1.00;;;;;;20583101;28;20053;-42
2023/09/08 18:13:55;;;;;;;8.02;6.90;;;25.30;1.00;;;;;;20583108;28;20035;-42
2023/09/08 18:23:56;;;;;;;8.48;6.35;;;24.90;1.00;;;;;;20592765;28;20326;-42
2023/09/08 18:33:57;;;;;;;9.57;6.72;;;24.50;1.00;;;;;;20597891;28;20375;-42
2023/09/08 18:43:58;;;;;;;7.63;6.82;;;24.20;1.00;;;;;;20595906;28;20054;-42
2023/09/08 18:53:58;;;;;;;8.30;7.38;;;24.00;1.00;;;;;;20598257;28;20589;-42
2023/09/08 19:03:59;;;;;;;9.93;7.50;;;23.80;1.00;;;;;;20595838;28;20487;-42
2023/09/08 19:14:00;;;;;;;10.15;8.35;;;23.50;1.00;;;;;;20594574;28;20042;-42
2023/09/08 19:24:00;;;;;;;10.45;8.70;;;23.30;1.00;;;;;;20595003;28;20323;-42
2023/09/08 19:34:01;;;;;;;10.35;9.23;;;23.10;1.00;;;;;;20593668;28;20059;-42
2023/09/08 19:44:03;;;;;;;12.40;10.20;;;23.00;1.00;;;;;;20605607;28;20073;-42
2023/09/08 19:54:04;;;;;;;10.50;9.40;;;23.00;1.00;;;;;;20592526;28;20517;-42
2023/09/08 20:04:05;;;;;;;12.57;10.50;;;22.80;1.00;;;;;;20591844;28;20427;-42
2023/09/08 20:14:06;;;;;;;13.50;10.55;;;22.50;1.00;;;;;;20589640;28;20038;-42
2023/09/08 20:24:07;;;;;;;15.27;10.80;;;22.40;1.00;;;;;;20588533;28;20081;-41
2023/09/08 20:34:10;;;;;;;13.93;12.10;;;22.30;1.00;;;;;;20589434;28;20047;-42
2023/09/08 20:44:10;;;;;;;14.15;12.57;;;22.20;1.00;;;;;;20587509;28;20046;-42
2023/09/08 20:54:11;;;;;;;13.77;11.90;;;22.00;1.00;;;;;;20588725;28;20046;-42
2023/09/08 21:04:11;;;;;;;23.60;20.55;;;21.90;1.00;;;;;;20588504;28;20039;-41
2023/09/08 21:14:12;;;;;;;49.08;39.55;;;21.90;1.00;;;;;;20587692;28;20070;-42
2023/09/08 21:24:13;;;;;;;53.92;42.33;;;21.80;1.00;;;;;;20584245;28;20399;-42
2023/09/08 21:34:20;;;;;;;60.67;50.30;;;21.70;1.00;;;;;;20586321;28;20054;-41
2023/09/08 21:44:20;;;;;;;68.80;55.35;;;21.60;1.00;;;;;;20582069;28;20117;-42
2023/09/08 21:54:21;;;;;;;73.55;59.92;;;21.50;2.20;;;;;;20587182;28;20042;-42
2023/09/08 22:04:22;;;;;;;74.03;56.72;;;21.40;11.00;;;;;;20601926;28;20302;-42
2023/09/08 22:14:22;;;;;;;79.40;62.97;;;21.30;9.20;;;;;;20599852;28;20034;-41
2023/09/08 22:24:23;;;;;;;84.13;67.13;;;21.20;11.70;;;;;;20597738;28;20050;-41
2023/09/08 22:34:25;;;;;;;80.38;64.10;;;21.00;15.40;;;;;;20600158;28;20053;-42
2023/09/08 22:44:25;;;;;;;81.40;64.53;;;21.00;19.30;;;;;;20597174;28;20146;-42
2023/09/08 22:54:26;;;;;;;86.43;69.63;;;20.90;15.90;;;;;;20594741;28;20066;-41
2023/09/08 23:04:26;;;;;;;91.47;68.55;;;20.70;24.30;;;;;;20595547;28;20048;-41
2023/09/08 23:14:27;;;;;;;83.70;64.72;;;20.60;29.10;;;;;;20596099;28;20038;-41
2023/09/08 23:24:27;;;;;;;86.05;65.50;;;20.50;28.70;;;;;;20593832;28;20030;-41
2023/09/08 23:34:28;;;;;;;86.47;63.47;;;20.40;32.50;;;;;;20596498;28;20030;-42
2023/09/08 23:44:28;;;;;;;82.32;64.25;;;20.30;40.20;;;;;;20592134;28;20046;-41
2023/09/08 23:54:29;;;;;;;92.18;70.15;;;20.20;36.90;;;;;;20591396;28;20042;-41
